Map

Track Data

SID SEASON NUMBER BASIN SUBBASIN NAME ISO_TIME NATURE LAT LON WMO_WIND WMO_PRES WMO_AGENCY TRACK_TYPE DIST2LAND LANDFALL IFLAG USA_AGENCY USA_ATCF_ID USA_LAT USA_LON USA_RECORD USA_STATUS USA_WIND USA_PRES USA_SSHS USA_R34_NE USA_R34_SE USA_R34_SW USA_R34_NW USA_R50_NE USA_R50_SE USA_R50_SW USA_R50_NW USA_R64_NE USA_R64_SE USA_R64_SW USA_R64_NW USA_POCI USA_ROCI USA_RMW USA_EYE TOKYO_LAT TOKYO_LON TOKYO_GRADE TOKYO_WIND TOKYO_PRES TOKYO_R50_DIR TOKYO_R50_LONG TOKYO_R50_SHORT TOKYO_R30_DIR TOKYO_R30_LONG TOKYO_R30_SHORT TOKYO_LAND CMA_LAT CMA_LON CMA_CAT CMA_WIND CMA_PRES HKO_LAT HKO_LON HKO_CAT HKO_WIND HKO_PRES NEWDELHI_LAT NEWDELHI_LON NEWDELHI_GRADE NEWDELHI_WIND NEWDELHI_PRES NEWDELHI_CI NEWDELHI_DP NEWDELHI_POCI REUNION_LAT REUNION_LON REUNION_TYPE REUNION_WIND REUNION_PRES REUNION_TNUM REUNION_CI REUNION_RMW REUNION_R34_NE REUNION_R34_SE REUNION_R34_SW REUNION_R34_NW REUNION_R50_NE REUNION_R50_SE REUNION_R50_SW REUNION_R50_NW REUNION_R64_NE REUNION_R64_SE REUNION_R64_SW REUNION_R64_NW BOM_LAT BOM_LON BOM_TYPE BOM_WIND BOM_PRES BOM_TNUM BOM_CI BOM_RMW BOM_R34_NE BOM_R34_SE BOM_R34_SW BOM_R34_NW BOM_R50_NE BOM_R50_SE BOM_R50_SW BOM_R50_NW BOM_R64_NE BOM_R64_SE BOM_R64_SW BOM_R64_NW BOM_ROCI BOM_POCI BOM_EYE BOM_POS_METHOD BOM_PRES_METHOD NADI_LAT NADI_LON NADI_CAT NADI_WIND NADI_PRES WELLINGTON_LAT WELLINGTON_LON WELLINGTON_WIND WELLINGTON_PRES DS824_LAT DS824_LON DS824_STAGE DS824_WIND DS824_PRES TD9636_LAT TD9636_LON TD9636_STAGE TD9636_WIND TD9636_PRES TD9635_LAT TD9635_LON TD9635_WIND TD9635_PRES TD9635_ROCI NEUMANN_LAT NEUMANN_LON NEUMANN_CLASS NEUMANN_WIND NEUMANN_PRES MLC_LAT MLC_LON MLC_CLASS MLC_WIND MLC_PRES USA_GUST BOM_GUST BOM_GUST_PER REUNION_GUST REUNION_GUST_PER USA_SEAHGT USA_SEARAD_NE USA_SEARAD_SE USA_SEARAD_SW USA_SEARAD_NW STORM_SPEED STORM_DIR
1981012S12110 1981 3 SI WA MABEL 1981-01-12 00:00:00 NR -11.8000 110.100 25 1004 bom main 408 406 ______O_______ -1 -11.8000 110.100 20 25 1004 2.00000 10 115
1981012S12110 1981 3 SI WA MABEL 1981-01-12 03:00:00 NR -12.0176 110.575 main 419 419 ______P_______ -1 -12.0176 110.575 20 25 1003 8 125
1981012S12110 1981 3 SI WA MABEL 1981-01-12 06:00:00 TS -12.2500 110.750 25 1002 bom main 436 441 O_____O___O_O_ jtwc_sh SH101981 -12.3000 110.400 20 -1 -12.2000 111.100 20 25 1002 2.50000 -12.3000 110.400 1 20 -12.3000 110.400 TC 20 7 120
1981012S12110 1981 3 SI WA MABEL 1981-01-12 09:00:00 TS -12.3698 111.189 main 451 448 P_____P___P_P_ SH101981 -12.3876 110.838 20 -1 -12.3226 111.700 20 27 1000 -12.4287 110.870 1 21 -12.3876 110.838 TC 20 9 105
1981012S12110 1981 3 SI WA MABEL 1981-01-12 12:00:00 TS -12.4820 111.617 30 999 bom main 459 459 O_____O___P_O_ jtwc_sh SH101981 -12.5000 111.300 20 -1 -12.4000 112.300 20 30 999 2.50000 -12.5555 111.342 1 22 -12.5000 111.300 TC 20 9 105
1981012S12110 1981 3 SI WA MABEL 1981-01-12 15:00:00 TS -12.6036 112.062 main 472 472 P_____P___P_P_ SH101981 -12.6500 111.800 22 -1 -12.4349 112.830 20 30 998 -12.6797 111.818 1 23 -12.6500 111.800 TC 22 9 105
1981012S12110 1981 3 SI WA MABEL 1981-01-12 18:00:00 TS -12.7250 112.550 30 997 bom main 477 477 O_____O___O_O_ jtwc_sh SH101981 -12.8000 112.300 25 -1 -12.5000 113.300 20 30 997 2.50000 -12.8000 112.300 1 25 -12.8000 112.300 TC 25 10 105
1981012S12110 1981 3 SI WA MABEL 1981-01-12 21:00:00 TS -12.8485 113.003 main 478 478 P_____P___P_P_ SH101981 -12.8998 112.750 25 -1 -12.6774 113.722 20 32 996 -12.9168 112.787 1 26 -12.8998 112.750 TC 25 9 107
1981012S12110 1981 3 SI WA MABEL 1981-01-13 00:00:00 TS -12.9837 113.443 35 995 bom main 488 482 O_____O___P_O_ jtwc_sh SH101981 -13.0000 113.200 25 -1 -12.9000 114.100 30 35 995 3.00000 -13.0349 113.273 1 27 -13.0000 113.200 TC 25 9 108
1981012S12110 1981 3 SI WA MABEL 1981-01-13 03:00:00 TS -13.1345 113.899 main 487 487 P_____P___P_P_ SH101981 -13.1425 113.700 27 -1 -13.0924 114.450 30 37 994 -13.1605 113.747 1 28 -13.1425 113.700 TC 27 9 110
1981012S12110 1981 3 SI WA MABEL 1981-01-13 06:00:00 TS -13.3000 114.350 40 993 bom main 504 504 O_____O___O_O_ jtwc_sh SH101981 -13.3000 114.200 30 -1 -13.3000 114.800 30 40 993 3.00000 -13.3000 114.200 1 30 -13.3000 114.200 TC 30 9 112
1981012S12110 1981 3 SI WA MABEL 1981-01-13 09:00:00 TS -13.4777 114.794 main 526 526 P_____P___P_P_ SH101981 -13.4425 114.673 30 -1 -13.5574 115.177 30 40 992 -13.4687 114.654 1 30 -13.4425 114.673 TC 30 9 113
1981012S12110 1981 3 SI WA MABEL 1981-01-13 12:00:00 TS -13.6625 115.221 40 992 bom main 542 537 O_____O___P_O_ jtwc_sh SH101981 -13.6000 115.100 30 -1 -13.8000 115.600 30 40 992 3.00000 -13.6500 115.082 1 30 -13.6000 115.100 TC 30 9 115
1981012S12110 1981 3 SI WA MABEL 1981-01-13 15:00:00 TS -13.8547 115.632 main 555 552 P_____P___P_P_ SH101981 -13.8074 115.480 30 -1 -13.9726 116.100 30 40 991 -13.8313 115.470 1 30 -13.8074 115.480 TC 30 8 116
1981012S12110 1981 3 SI WA MABEL 1981-01-13 18:00:00 TS -14.0250 116.000 40 990 bom main 559 557 O_____O___O_O_ jtwc_sh SH101981 -14.0000 115.800 30 -1 -14.1000 116.600 30 40 990 3.00000 -14.0000 115.800 1 30 -14.0000 115.800 TC 30 7 113
1981012S12110 1981 3 SI WA MABEL 1981-01-13 21:00:00 TS -14.1336 116.319 main 565 563 P_____P___P_P_ SH101981 -14.1075 116.080 32 -1 -14.1925 117.045 30 42 990 -14.1269 116.070 1 33 -14.1075 116.080 TC 32 6 111
1981012S12110 1981 3 SI WA MABEL 1981-01-14 00:00:00 TS -14.2355 116.571 45 990 bom main 572 572 O_____O___P_O_ jtwc_sh SH101981 -14.2000 116.300 35 0 -14.3000 117.400 30 45 990 3.00000 -14.2421 116.283 1 37 -14.2000 116.300 TC 35 5 120
1981012S12110 1981 3 SI WA MABEL 1981-01-14 03:00:00 TS -14.3772 116.759 main 582 582 P_____P___P_P_ SH101981 -14.3350 116.465 40 0 -14.4774 117.652 30 45 989 -14.3613 116.454 1 41 -14.3350 116.465 TC 40 4 135
1981012S12110 1981 3 SI WA MABEL 1981-01-14 06:00:00 TS -14.5500 116.900 45 989 bom main 588 588 O_____O___O_O_ jtwc_sh SH101981 -14.5000 116.600 45 0 -14.7000 117.800 30 45 989 3.00000 -14.5000 116.600 2 45 -14.5000 116.600 TC 45 5 144
1981012S12110 1981 3 SI WA MABEL 1981-01-14 09:00:00 TS -14.7486 117.038 main 604 602 P_____P___P_P_ SH101981 -14.6925 116.757 47 0 -14.9350 117.880 30 47 988 -14.6743 116.759 2 46 -14.6925 116.757 TC 47 5 150
1981012S12110 1981 3 SI WA MABEL 1981-01-14 12:00:00 TS -14.9675 117.149 50 988 bom main 602 583 O_____O___P_O_ jtwc_sh SH101981 -14.9000 116.900 50 0 -15.2000 117.900 30 50 988 3.50000 -14.8699 116.895 2 47 -14.9000 116.900 TC 50 5 157
1981012S12110 1981 3 SI WA MABEL 1981-01-14 15:00:00 TS -15.1970 117.238 main 583 559 P_____P___P_P_ SH101981 -15.1000 117.015 50 0 -15.5075 117.915 30 55 988 -15.0806 117.009 2 48 -15.1000 117.015 TC 50 5 162
1981012S12110 1981 3 SI WA MABEL 1981-01-14 18:00:00 TS -15.4250 117.300 60 988 bom main 559 538 O_____O___O_O_ jtwc_sh SH101981 -15.3000 117.100 50 0 -15.8000 117.900 30 60 988 4.00000 -15.3000 117.100 2 50 -15.3000 117.100 TC 50 4 167
1981012S12110 1981 3 SI WA MABEL 1981-01-14 21:00:00 TS -15.6266 117.338 main 538 513 P_____P___P_P_ SH101981 -15.4925 117.158 50 0 -16.0075 117.858 30 60 988 -15.5137 117.180 2 50 -15.4925 117.158 TC 50 4 172
1981012S12110 1981 3 SI WA MABEL 1981-01-15 00:00:00 TS -15.8337 117.359 60 988 bom main 513 482 O_____O___P_O_ jtwc_sh SH101981 -15.7000 117.200 50 0 -16.2000 117.800 30 60 988 4.00000 -15.7350 117.238 2 50 -15.7000 117.200 TC 50 5 176
1981012S12110 1981 3 SI WA MABEL 1981-01-15 03:00:00 TS -16.0766 117.387 main 482 461 P_____P___P_P_ SH101981 -15.9425 117.257 50 0 -16.4575 117.757 30 60 987 -15.9637 117.277 2 50 -15.9425 117.257 TC 50 5 176
1981012S12110 1981 3 SI WA MABEL 1981-01-15 06:00:00 TS -16.3250 117.400 60 986 bom main 461 440 O_____O___O_O_ jtwc_sh SH101981 -16.2000 117.300 50 0 -16.7000 117.700 30 60 986 4.00000 -16.2000 117.300 2 50 -16.2000 117.300 TC 50 5 0
1981012S12110 1981 3 SI WA MABEL 1981-01-15 09:00:00 TS -16.5569 117.387 main 430 409 P_____P___P_P_ SH101981 -16.4500 117.308 50 0 -16.8725 117.608 30 60 985 -16.4550 117.327 2 50 -16.4500 117.308 TC 50 5 186
1981012S12110 1981 3 SI WA MABEL 1981-01-15 12:00:00 TS -16.7787 117.359 60 985 bom main 409 389 O_____O___P_O_ jtwc_sh SH101981 -16.7000 117.300 50 0 -17.0000 117.500 30 60 985 4.00000 -16.7150 117.337 2 50 -16.7000 117.300 TC 50 4 187
1981012S12110 1981 3 SI WA MABEL 1981-01-15 15:00:00 TS -16.9956 117.334 main 389 367 P_____P___P_P_ SH101981 -16.9575 117.307 50 0 -17.1000 117.392 30 60 984 -16.9675 117.330 2 50 -16.9575 117.307 TC 52 4 187
1981012S12110 1981 3 SI WA MABEL 1981-01-15 18:00:00 TS -17.2000 117.300 60 983 bom main 367 346 O_____O___O_O_ jtwc_sh SH101981 -17.2000 117.300 50 0 -17.2000 117.300 30 60 983 4.00000 -17.2000 117.300 2 50 -17.2000 117.300 TC 55 983 4 190
1981012S12110 1981 3 SI WA MABEL 1981-01-15 21:00:00 TS -17.3953 117.260 main 346 327 P_____P___P_P_ SH101981 -17.4150 117.265 50 0 -17.3425 117.250 30 57 981 -17.4087 117.259 2 50 -17.4150 117.265 TC 57 981 4 194
1981012S12110 1981 3 SI WA MABEL 1981-01-16 00:00:00 TS -17.5737 117.199 55 980 bom main 327 316 O_____O___P_O_ jtwc_sh SH101981 -17.6000 117.200 50 0 -17.5000 117.200 30 55 980 4.00000 -17.5949 117.195 2 50 -17.6000 117.200 TC 60 980 4 202
1981012S12110 1981 3 SI WA MABEL 1981-01-16 03:00:00 TS -17.7384 117.112 main 319 302 P_____P___P_P_ SH101981 -17.7650 117.115 50 0 -17.6650 117.108 30 62 977 -17.7587 117.109 2 50 -17.7650 117.115 TC 65 977 4 212
1981012S12110 1981 3 SI WA MABEL 1981-01-16 06:00:00 TS -17.8750 117.000 70 975 bom main 302 291 O_____O___O_O_ jtwc_sh SH101981 -17.9000 117.000 50 0 -17.8000 117.000 40 70 975 4.50000 -17.9000 117.000 2 50 -17.9000 117.000 TC 70 975 3 223
1981012S12110 1981 3 SI WA MABEL 1981-01-16 09:00:00 TS -17.9815 116.874 main 291 279 P_____P___P_P_ SH101981 -18.0075 116.857 52 0 -17.8650 116.907 40 75 972 -18.0460 116.872 2 52 -18.0075 116.857 TC 72 972 3 233
1981012S12110 1981 3 SI WA MABEL 1981-01-16 12:00:00 TS -18.0669 116.731 80 970 bom main 279 268 O_____O___P_O_ jtwc_sh SH101981 -18.1000 116.700 55 0 -17.9000 116.800 40 80 970 5.00000 -18.1675 116.723 2 55 -18.1000 116.700 TC 75 970 3 237
1981012S12110 1981 3 SI WA MABEL 1981-01-16 15:00:00 TS -18.1626 116.580 main 268 268 P_____P___P_P_ SH101981 -18.2225 116.550 57 0 -17.9500 116.658 40 80 967 -18.2553 116.562 2 57 -18.2225 116.550 TC 77 967 3 241
1981012S12110 1981 3 SI WA MABEL 1981-01-16 18:00:00 TS -18.2250 116.425 80 965 bom main 270 270 O_____O___O_O_ jtwc_sh SH101981 -18.3000 116.400 60 0 -18.0000 116.500 40 80 965 5.00000 -18.3000 116.400 2 60 -18.3000 116.400 TC 80 965 3 260
1981012S12110 1981 3 SI WA MABEL 1981-01-16 21:00:00 TS -18.2149 116.275 main 271 271 P_____P___P_P_ SH101981 -18.2725 116.250 62 0 -18.0500 116.342 40 80 962 -18.2646 116.258 2 62 -18.2725 116.250 TC 82 962 3 280
1981012S12110 1981 3 SI WA MABEL 1981-01-17 00:00:00 TS -18.1731 116.129 80 960 bom main 275 275 O_____O___P_O_ jtwc_sh SH101981 -18.2000 116.100 65 1 -18.1000 116.200 40 80 960 5.00000 -18.1924 116.115 2 65 -18.2000 116.100 TC 85 960 3 287
1981012S12110 1981 3 SI WA MABEL 1981-01-17 03:00:00 TS -18.1322 115.995 main 289 289 P_____P___P_P_ SH101981 -18.1275 115.957 67 1 -18.1500 116.100 40 85 957 -18.1240 115.964 2 67 -18.1275 115.957 TC 90 957 3 280
1981012S12110 1981 3 SI WA MABEL 1981-01-17 06:00:00 TS -18.1250 115.850 90 955 bom main 291 288 O_____O___O_O_ jtwc_sh SH101981 -18.1000 115.800 70 1 -18.2000 116.000 40 90 955 5.50000 -18.1000 115.800 4 70 -18.1000 115.800 TC 95 955 3 261
1981012S12110 1981 3 SI WA MABEL 1981-01-17 09:00:00 TS -18.1813 115.676 main 288 286 P_____P___P_P_ SH101981 -18.1700 115.608 72 1 -18.2350 115.872 40 92 952 -18.1503 115.618 4 73 -18.1700 115.608 TC 97 952 4 245
1981012S12110 1981 3 SI WA MABEL 1981-01-17 12:00:00 TS -18.2881 115.481 95 950 bom main 286 281 O_____O___P_O_ jtwc_sh SH101981 -18.3000 115.400 75 1 -18.3000 115.700 40 95 950 5.50000 -18.2525 115.422 4 77 -18.3000 115.400 TC 100 950 5 238
1981012S12110 1981 3 SI WA MABEL 1981-01-17 15:00:00 TS -18.4234 115.268 main 286 279 P_____P___P_P_ SH101981 -18.4275 115.200 80 1 -18.4350 115.458 40 97 947 -18.4034 115.215 4 81 -18.4275 115.200 TC 102 947 5 233
1981012S12110 1981 3 SI WA MABEL 1981-01-17 18:00:00 TS -18.6000 115.050 100 944 bom main 279 271 O_____O___O_O_ jtwc_sh SH101981 -18.6000 115.000 85 2 -18.6000 115.200 40 100 944 6.00000 -18.6000 115.000 4 85 -18.6000 115.000 TC 105 944 5 226
1981012S12110 1981 3 SI WA MABEL 1981-01-17 21:00:00 TS -18.7947 114.859 main 271 264 P_____P___P_P_ SH101981 -18.8275 114.807 87 2 -18.7123 115.022 40 105 940 -18.8114 114.798 4 87 -18.8275 114.807 TC 110 940 6 221
1981012S12110 1981 3 SI WA MABEL 1981-01-18 00:00:00 TS -19.0418 114.647 110 937 bom main 270 248 O_____O___P_O_ jtwc_sh SH101981 -19.1000 114.600 90 2 -18.9000 114.800 40 110 937 6.50000 -19.0672 114.587 4 90 -19.1000 114.600 TC 115 937 7 219
1981012S12110 1981 3 SI WA MABEL 1981-01-18 03:00:00 TS -19.3493 114.377 main 254 238 P_____P___P_P_ SH101981 -19.3850 114.365 92 2 -19.2626 114.423 40 110 933 -19.3645 114.357 4 92 -19.3850 114.365 TC 117 933 9 219
1981012S12110 1981 3 SI WA MABEL 1981-01-18 06:00:00 TS -19.7000 114.075 110 930 bom main 238 213 O_____O___O_O_ jtwc_sh SH101981 -19.7000 114.100 95 2 -19.7000 114.000 40 110 930 6.50000 -19.7000 114.100 4 95 -19.7000 114.100 TC 120 930 9 220
1981012S12110 1981 3 SI WA MABEL 1981-01-18 09:00:00 TS -20.0450 113.760 main 213 175 P_____P___P_P_ SH101981 -20.0274 113.815 97 3 -20.0850 113.627 40 110 932 -20.0400 113.784 4 96 -20.0274 113.815 TC 117 932 9 219
1981012S12110 1981 3 SI WA MABEL 1981-01-18 12:00:00 TS -20.4295 113.436 110 934 bom main 178 148 O_____O___P_O_ jtwc_sh SH101981 -20.4000 113.500 100 3 -20.5000 113.300 40 110 934 6.50000 -20.4180 113.443 4 97 -20.4000 113.500 TC 115 934 10 217
1981012S12110 1981 3 SI WA MABEL 1981-01-18 15:00:00 TS -20.8674 113.104 main 145 136 P_____P___P_P_ SH101981 -20.8201 113.143 100 3 -20.9924 113.027 40 110 936 -20.8369 113.105 4 98 -20.8201 113.143 TC 112 936 11 213
1981012S12110 1981 3 SI WA MABEL 1981-01-18 18:00:00 TS -21.3500 112.800 110 939 bom main 141 135 O_____O___O_O_ jtwc_sh SH101981 -21.3000 112.800 100 3 -21.5000 112.800 40 110 939 6.50000 -21.3000 112.800 4 100 -21.3000 112.800 TC 110 939 11 208
1981012S12110 1981 3 SI WA MABEL 1981-01-18 21:00:00 TS -21.8697 112.539 main 137 126 P_____P___P_P_ SH101981 -21.8349 112.520 97 3 -21.9575 112.577 40 105 942 -21.8513 112.540 4 97 -21.8349 112.520 TC 107 942 12 202
1981012S12110 1981 3 SI WA MABEL 1981-01-19 00:00:00 TS -22.4093 112.330 100 945 bom main 135 133 O_____O___P_O_ jtwc_sh SH101981 -22.4000 112.300 95 2 -22.4000 112.400 40 100 945 6.00000 -22.4373 112.318 4 95 -22.4000 112.300 TC 105 945 12 198
1981012S12110 1981 3 SI WA MABEL 1981-01-19 03:00:00 TS -22.9611 112.167 main 150 150 P_____P___P_P_ SH101981 -22.9875 112.120 92 2 -22.8649 112.292 40 95 950 -23.0046 112.137 4 92 -22.9875 112.120 TC 97 950 11 194
1981012S12110 1981 3 SI WA MABEL 1981-01-19 06:00:00 TS -23.4500 112.050 90 956 bom main 153 149 O_____O___O_O_ jtwc_sh SH101981 -23.5000 112.000 90 2 -23.3000 112.200 40 90 956 5.50000 -23.5000 112.000 4 90 -23.5000 112.000 TC 90 956 9 192
1981012S12110 1981 3 SI WA MABEL 1981-01-19 09:00:00 TS -23.8089 111.970 main 152 152 P_____P___P_P_ SH101981 -23.8450 111.935 82 1 -23.6799 112.072 40 85 961 -23.8659 111.938 4 83 -23.8450 111.935 TC 85 961 7 192
1981012S12110 1981 3 SI WA MABEL 1981-01-19 12:00:00 TS -24.0886 111.903 80 966 bom main 155 152 O_____O___P_O_ jtwc_sh SH101981 -24.1000 111.900 75 1 -24.0000 111.900 40 80 966 5.00000 -24.1545 111.913 4 77 -24.1000 111.900 TC 80 966 6 194
1981012S12110 1981 3 SI WA MABEL 1981-01-19 15:00:00 TS -24.3502 111.829 main 161 161 P_____P___P_P_ SH101981 -24.3574 111.880 70 1 -24.2950 111.673 40 72 971 -24.3908 111.882 4 71 -24.3574 111.880 TC 72 5 201
1981012S12110 1981 3 SI WA MABEL 1981-01-19 18:00:00 TS -24.5750 111.700 65 976 bom main 173 173 O_____O___O_O_ jtwc_sh SH101981 -24.6000 111.800 65 1 -24.5000 111.400 40 65 976 4.50000 -24.6000 111.800 4 65 -24.6000 111.800 TC 65 6 216
1981012S12110 1981 3 SI WA MABEL 1981-01-19 21:00:00 TS -24.7966 111.470 main 197 197 P_____P___P_P_ SH101981 -24.8651 111.580 62 0 -24.6099 111.115 40 60 978 -24.8462 111.604 4 62 -24.8651 111.580 TC 62 6 230
1981012S12110 1981 3 SI WA MABEL 1981-01-20 00:00:00 TS -24.9670 111.188 55 980 bom main 231 231 O_____O___P_O_ jtwc_sh SH101981 -25.1000 111.300 60 0 -24.6000 110.800 30 55 980 4.00000 -25.0678 111.353 4 60 -25.1000 111.300 TC 60 6 242
1981012S12110 1981 3 SI WA MABEL 1981-01-20 03:00:00 TS -25.0739 110.901 main 259 259 P_____P___P_P_ SH101981 -25.2800 111.042 57 0 -24.4801 110.442 30 50 985 -25.2555 111.076 4 57 -25.2800 111.042 TC 57 5 253
1981012S12110 1981 3 SI WA MABEL 1981-01-20 06:00:00 TS -25.1250 110.625 45 991 bom main 288 288 O_____O___O_O_ jtwc_sh SH101981 -25.4000 110.800 55 0 -24.3000 110.100 30 45 991 3.00000 -25.4000 110.800 2 55 -25.4000 110.800 TC 55 5 260
1981012S12110 1981 3 SI WA MABEL 1981-01-20 09:00:00 TS -25.1516 110.406 main 306 306 P_____P___P_P_ SH101981 -25.4649 110.600 50 0 -24.1798 109.850 30 40 993 -25.4969 110.575 2 51 -25.4649 110.600 TC 50 4 268
1981012S12110 1981 3 SI WA MABEL 1981-01-20 12:00:00 TS -25.1380 110.189 35 995 bom main 328 328 O_____O___P_O_ jtwc_sh SH101981 -25.5000 110.400 45 0 -24.0000 109.600 30 35 995 3.00000 -25.5521 110.357 2 47 -25.5000 110.400 TC 45 4 278
1981012S12110 1981 3 SI WA MABEL 1981-01-20 15:00:00 TS -25.0922 109.929 main 357 357 P_____P___P_P_ SH101981 -25.5500 110.157 42 0 -23.6875 109.265 30 32 997 -25.5813 110.135 2 43 -25.5500 110.157 TC 42 4 270
1981012S12110 1981 3 SI WA MABEL 1981-01-20 18:00:00 TS -25.1400 109.700 30 1000 bom main 377 374 O_____O___O_O_ jtwc_sh SH101981 -25.6000 109.900 40 0 -23.3000 108.900 20 30 1000 2.50000 -25.6000 109.900 2 40 -25.6000 109.900 TC 40 4 248
1981012S12110 1981 3 SI WA MABEL 1981-01-20 21:00:00 TS -25.2531 109.495 main 390 390 P_____P___P_P_ SH101981 -25.6574 109.658 37 0 -22.9001 108.545 20 27 1002 -25.6210 109.645 2 37 -25.6574 109.658 TC 37 4 240
1981012S12110 1981 3 SI WA MABEL 1981-01-21 00:00:00 TS -25.3637 109.272 25 1004 bom main 407 407 O_____O___P_O_ jtwc_sh SH101981 -25.7000 109.400 35 0 -22.5000 108.200 20 25 1004 2.00000 -25.6456 109.373 2 35 -25.7000 109.400 TC 35 6 218
1981012S12110 1981 3 SI WA MABEL 1981-01-21 03:00:00 TS -25.6976 109.103 main 422 422 P_________P_P_ SH101981 -25.7102 109.110 32 -1 20 -25.6724 109.089 2 32 -25.7102 109.110 TC 32 5 232
1981012S12110 1981 3 SI WA MABEL 1981-01-21 06:00:00 TS -25.7000 108.800 main 451 O_________O_O_ jtwc_sh SH101981 -25.7000 108.800 30 -1 -25.7000 108.800 1 30 -25.7000 108.800 TC 30 5 269

About IBTrACS Database

This database is a web-friendly format of International Best Track Archive for Climate Stewardship (IBTrACS), a global best track data archive curated by NOAA dating back to 1842.

Updated: 2021-12-06